Ana Sayfa
METAR-TAF:

METAR-TAF

Havaalanları :

Zonguldak Havalimanı

Zonguldak, Türkiye

Enlem: 41-27N, Boylam: 031-48E, yükseklik: 136 m

Güncel hava durumu gözlemi

Rapor saat 13:50 UTC de 16 saat ve 8 dakika önce yapıldı.
Rüzgar kuzeydan 4 kt
Sıcaklık 18°C
Nem 64%
Basınç 1019 hPa
Görüş mesafesi 10 km veya daha fazla
1500 m altında bulut yok ve kümülonimbus yok

METAR: LTAS 171350Z 36004KT CAVOK 18/11 Q1019

Saat: 08:58 (05:58 UTC)

Tahmin

Rapor saat 04:40 UTC de 1 saat ve 18 dakika önce yapıldı.
Ayın 18'si saat 06 UTC'den ayın 18'si saat 15 UTC'ye kadar geçerli Tahmin
Rüzgar değişken yönden 2 kt
Görüş mesafesi 10 km veya daha fazla
1500 m altında bulut yok ve kümülonimbus yok
Geçici
ayın 18'si saat 06 UTC'den ayın 18'si saat 08 UTC'ye kadar
Görüş mesafesi: 4000 m
Pus

TAF: LTAS 180440Z 1806/1815 VRB02KT CAVOK TEMPO 1806/1808 4000 BR

4.000'den fazla havaalanı için hava durumu gözlemleri ve tahminleri (METAR ve TAF raporları).

Kullanılabilir istasyonlar harita üzerinde sarı ve kırmızı noktalarla gösterilir.

İstasyonun adını görmek için fareyi noktanın üzerinde gezdirin.

Sonrasında hava gözlem ve tahminlerini görmek için tıklayın.

Haritayı değiştirmek için: yaklaştırmak için siyah artı işaretli yeşil düğmeye ve uzaklaştırmak için de eksi işaretli düğmeye hızla tıklayın; bitişik haritalar için yeşil okları kullanın.


METAR-TAF: